Casablanca, Morocco
Current Conditions -  °F | °C
As of 6:00 PM on Saturday 25 Oct 2014 (Local Time) from GMMC Reporting Station
Clear Clear  
Wind Chill: 72°   Ceiling: Unl
Heat Index: 72°   Visibility: 5mi
Dew Point: 66°   Wind: 6mph
Humidity: 83%   Direction: 360°N
Pressure: 29.97"   Gusts: NA
Location:  33.6°N, 7.62°W
Report Text: GMMC 251700Z 36005KT 8000 NSC 22/19 Q1015
Loading
Personal Weather Stations






























Interactive Weather Map
Tropical Storm Tracking
New forecast layout! Learn more

10-Day Weather Forecast

Advertisements
Track Severe Weather on mobile